createdAt,value
2022-12-03T00:00:29.136Z,1.78
2022-12-03T00:01:29.794Z,1.79
2022-12-03T00:02:29.300Z,1.79
2022-12-03T00:03:29.305Z,1.82
2022-12-03T00:04:29.158Z,1.83
2022-12-03T00:05:29.726Z,1.82
2022-12-03T00:06:34.210Z,1.82
2022-12-03T00:07:29.903Z,1.78
2022-12-03T00:08:29.665Z,1.80
2022-12-03T00:09:29.203Z,1.82
2022-12-03T00:10:29.160Z,1.82
2022-12-03T00:11:29.671Z,1.85
2022-12-03T00:12:28.698Z,1.82
2022-12-03T00:13:28.684Z,1.85
2022-12-03T00:14:30.112Z,1.85
2022-12-03T00:15:28.726Z,1.85
2022-12-03T00:16:28.755Z,1.87
2022-12-03T00:17:28.662Z,1.85
2022-12-03T00:18:28.699Z,1.83
2022-12-03T00:19:28.635Z,1.80
2022-12-03T00:20:29.245Z,1.80
2022-12-03T00:21:28.713Z,1.80
2022-12-03T00:22:28.564Z,1.83
2022-12-03T00:23:28.610Z,1.79
2022-12-03T00:24:28.576Z,1.76
2022-12-03T00:25:28.574Z,1.73
2022-12-03T00:26:28.543Z,1.73
2022-12-03T00:27:28.551Z,1.72
2022-12-03T00:28:29.470Z,1.72
2022-12-03T00:29:28.542Z,1.72
2022-12-03T00:30:28.496Z,1.75
2022-12-03T00:31:28.666Z,1.73
2022-12-03T00:32:28.476Z,1.72
2022-12-03T00:33:28.483Z,1.75
2022-12-03T00:34:28.461Z,1.78
2022-12-03T00:35:28.464Z,1.82
2022-12-03T00:36:28.423Z,1.82
2022-12-03T00:37:28.454Z,1.83
2022-12-03T00:38:28.416Z,1.87
2022-12-03T00:39:28.459Z,1.87
2022-12-03T00:40:28.381Z,1.83
2022-12-03T00:41:28.407Z,1.80
2022-12-03T00:42:28.368Z,1.80
2022-12-03T00:43:28.370Z,1.82
2022-12-03T00:44:28.339Z,1.78
2022-12-03T00:45:28.353Z,1.79
2022-12-03T00:46:28.365Z,1.80
2022-12-03T00:47:28.347Z,1.80
2022-12-03T00:48:28.320Z,1.82
2022-12-03T00:49:28.319Z,1.82
2022-12-03T00:50:28.264Z,1.80
2022-12-03T00:51:28.291Z,1.80
2022-12-03T00:52:28.328Z,1.80
2022-12-03T00:53:28.297Z,1.82
2022-12-03T00:54:31.875Z,1.82
2022-12-03T00:55:28.229Z,1.82
2022-12-03T00:56:28.205Z,1.82
2022-12-03T00:57:28.230Z,1.80
2022-12-03T00:58:28.181Z,1.78
2022-12-03T00:59:28.212Z,1.79
2022-12-03T01:00:28.164Z,1.80
2022-12-03T01:01:28.242Z,1.79
2022-12-03T01:02:28.159Z,1.75
2022-12-03T01:03:28.159Z,1.71
2022-12-03T01:04:28.218Z,1.69
2022-12-03T01:05:28.134Z,1.71
2022-12-03T01:06:28.094Z,1.68
2022-12-03T01:07:28.169Z,1.64
2022-12-03T01:08:28.088Z,1.64
2022-12-03T01:09:28.099Z,1.62
2022-12-03T01:10:29.008Z,1.60
2022-12-03T01:11:28.076Z,1.58
2022-12-03T01:12:28.035Z,1.57
2022-12-03T01:13:28.059Z,1.54
2022-12-03T01:14:28.005Z,1.54
2022-12-03T01:15:28.022Z,1.55
2022-12-03T01:16:28.137Z,1.57
2022-12-03T01:17:28.038Z,1.60
2022-12-03T01:18:27.983Z,1.62
2022-12-03T01:19:27.989Z,1.64
2022-12-03T01:20:27.935Z,1.68
2022-12-03T01:21:27.965Z,1.68
2022-12-03T01:22:27.913Z,1.68
2022-12-03T01:23:27.948Z,1.68
2022-12-03T01:24:27.912Z,1.68
2022-12-03T01:25:27.911Z,1.69
2022-12-03T01:26:27.880Z,1.68
2022-12-03T01:27:27.900Z,1.65
2022-12-03T01:28:27.871Z,1.64
2022-12-03T01:29:27.904Z,1.64
2022-12-03T01:30:27.876Z,1.62
2022-12-03T01:31:28.041Z,1.64
2022-12-03T01:32:27.819Z,1.64
2022-12-03T01:33:27.831Z,1.65
2022-12-03T01:34:27.798Z,1.62
2022-12-03T01:35:27.836Z,1.64
2022-12-03T01:36:27.778Z,1.61
2022-12-03T01:37:27.797Z,1.62
2022-12-03T01:38:27.756Z,1.60
2022-12-03T01:39:27.759Z,1.57
2022-12-03T01:40:27.747Z,1.52
2022-12-03T01:41:27.742Z,1.51
2022-12-03T01:42:27.709Z,1.52
2022-12-03T01:43:27.721Z,1.51
2022-12-03T01:44:27.687Z,1.50
2022-12-03T01:45:27.726Z,1.47
2022-12-03T01:46:27.723Z,1.47
2022-12-03T01:47:27.679Z,1.47
2022-12-03T01:48:27.746Z,1.51
2022-12-03T01:49:27.681Z,1.52
2022-12-03T01:50:27.641Z,1.51
2022-12-03T01:51:27.640Z,1.51
2022-12-03T01:52:27.612Z,1.51
2022-12-03T01:53:27.620Z,1.47
2022-12-03T01:54:27.585Z,1.40
2022-12-03T01:55:27.612Z,1.37
2022-12-03T01:56:27.565Z,1.40
2022-12-03T01:57:27.573Z,1.42
2022-12-03T01:58:27.537Z,1.43
2022-12-03T01:59:27.613Z,1.39
2022-12-03T02:00:27.534Z,1.36
2022-12-03T02:01:27.578Z,1.33
2022-12-03T02:02:27.494Z,1.37
2022-12-03T02:03:27.536Z,1.39
2022-12-03T02:04:27.571Z,1.43
2022-12-03T02:05:27.493Z,1.46
2022-12-03T02:06:27.452Z,1.52
2022-12-03T02:07:27.513Z,1.55
2022-12-03T02:08:27.424Z,1.60
2022-12-03T02:09:27.445Z,1.60
2022-12-03T02:10:27.570Z,1.58
2022-12-03T02:11:27.423Z,1.46
2022-12-03T02:12:27.390Z,1.40
2022-12-03T02:13:27.407Z,1.36
2022-12-03T02:14:27.366Z,1.32
2022-12-03T02:15:27.386Z,1.26
2022-12-03T02:16:27.425Z,1.28
2022-12-03T02:17:27.358Z,1.28
2022-12-03T02:18:27.327Z,1.29
2022-12-03T02:19:27.356Z,1.32
2022-12-03T02:20:27.302Z,1.36
2022-12-03T02:21:27.342Z,1.39
2022-12-03T02:22:27.285Z,1.40
2022-12-03T02:23:27.289Z,1.37
2022-12-03T02:24:27.263Z,1.34
2022-12-03T02:25:27.281Z,1.36
2022-12-03T02:26:27.248Z,1.36
2022-12-03T02:27:27.250Z,1.39
2022-12-03T02:28:27.231Z,1.40
2022-12-03T02:29:27.231Z,1.44
2022-12-03T02:30:27.216Z,1.42
2022-12-03T02:31:27.274Z,1.33
2022-12-03T02:32:27.169Z,1.28
2022-12-03T02:33:27.209Z,1.26
2022-12-03T02:34:27.157Z,1.25
2022-12-03T02:35:27.165Z,1.28
2022-12-03T02:36:27.137Z,1.32
2022-12-03T02:37:27.130Z,1.28
2022-12-03T02:38:27.111Z,1.28
2022-12-03T02:39:27.127Z,1.26
2022-12-03T02:40:27.098Z,1.24
2022-12-03T02:41:27.122Z,1.21
2022-12-03T02:42:27.072Z,1.24
2022-12-03T02:43:27.092Z,1.22
2022-12-03T02:44:27.060Z,1.16
2022-12-03T02:45:27.079Z,1.12
2022-12-03T02:46:28.056Z,1.12
2022-12-03T02:47:27.038Z,1.14
2022-12-03T02:48:26.998Z,1.15
2022-12-03T02:49:27.018Z,1.21
2022-12-03T02:50:26.982Z,1.22
2022-12-03T02:51:27.011Z,1.18
2022-12-03T02:52:26.956Z,1.21
2022-12-03T02:53:26.973Z,1.24
2022-12-03T02:54:26.969Z,1.22
2022-12-03T02:55:30.645Z,1.28
2022-12-03T02:56:27.927Z,1.29
2022-12-03T02:57:26.980Z,1.33
2022-12-03T02:58:26.897Z,1.28
2022-12-03T02:59:26.917Z,1.26
2022-12-03T03:00:26.867Z,1.24
2022-12-03T03:01:26.969Z,1.25
2022-12-03T03:02:26.974Z,1.26
2022-12-03T03:03:26.893Z,1.26
2022-12-03T03:04:26.822Z,1.29
2022-12-03T03:05:26.895Z,1.32
2022-12-03T03:06:26.875Z,1.33
2022-12-03T03:07:26.966Z,1.37
2022-12-03T03:08:26.818Z,1.39
2022-12-03T03:09:26.799Z,1.34
2022-12-03T03:10:26.788Z,1.36
2022-12-03T03:11:27.783Z,1.28
2022-12-03T03:12:26.748Z,1.26
2022-12-03T03:13:26.799Z,1.25
2022-12-03T03:14:26.773Z,1.26
2022-12-03T03:15:26.745Z,1.15
2022-12-03T03:16:26.835Z,1.07
2022-12-03T03:17:26.783Z,1.04
2022-12-03T03:18:26.710Z,1.06
2022-12-03T03:19:26.825Z,1.03
2022-12-03T03:20:26.756Z,1.00
2022-12-03T03:21:26.689Z,1.03
2022-12-03T03:22:26.662Z,1.06
2022-12-03T03:23:26.720Z,1.10
2022-12-03T03:24:26.615Z,1.15
2022-12-03T03:25:26.647Z,1.18
2022-12-03T03:26:26.630Z,1.22
2022-12-03T03:27:26.611Z,1.25
2022-12-03T03:28:26.577Z,1.28
2022-12-03T03:29:26.595Z,1.28
2022-12-03T03:30:26.582Z,1.29
2022-12-03T03:31:26.617Z,1.29
2022-12-03T03:32:26.546Z,1.33
2022-12-03T03:33:26.523Z,1.36
2022-12-03T03:34:26.533Z,1.33
2022-12-03T03:35:26.540Z,1.34
2022-12-03T03:36:26.530Z,1.34
2022-12-03T03:37:26.483Z,1.36
2022-12-03T03:38:26.531Z,1.39
2022-12-03T03:39:26.453Z,1.32
2022-12-03T03:40:26.469Z,1.33
2022-12-03T03:41:26.464Z,1.26
2022-12-03T03:42:26.443Z,1.26
2022-12-03T03:43:26.425Z,1.25
2022-12-03T03:44:26.424Z,1.29
2022-12-03T03:45:29.381Z,1.32
2022-12-03T03:46:26.469Z,1.34
2022-12-03T03:47:26.365Z,1.36
2022-12-03T03:48:26.389Z,1.34
2022-12-03T03:49:26.367Z,1.24
2022-12-03T03:50:26.365Z,1.22
2022-12-03T03:51:26.326Z,1.21
2022-12-03T03:52:26.346Z,1.21
2022-12-03T03:53:26.317Z,1.21
2022-12-03T03:54:26.326Z,1.21
2022-12-03T03:55:26.299Z,1.12
2022-12-03T03:56:26.297Z,1.06
2022-12-03T03:57:26.268Z,1.00
2022-12-03T03:58:27.241Z,0.96
2022-12-03T03:59:26.257Z,0.94
2022-12-03T04:00:26.271Z,0.92
2022-12-03T04:01:26.381Z,0.96
2022-12-03T04:02:26.240Z,1.00
2022-12-03T04:03:26.210Z,1.00
2022-12-03T04:04:26.289Z,1.03
2022-12-03T04:05:27.129Z,1.03
2022-12-03T04:06:26.211Z,1.06
2022-12-03T04:07:26.211Z,1.08
2022-12-03T04:08:26.212Z,1.08
2022-12-03T04:09:26.171Z,1.10
2022-12-03T04:10:26.166Z,1.06
2022-12-03T04:11:26.121Z,1.01
2022-12-03T04:12:26.130Z,1.03
2022-12-03T04:13:26.096Z,1.01
2022-12-03T04:14:26.131Z,1.03
2022-12-03T04:15:26.089Z,1.07
2022-12-03T04:16:26.214Z,1.08
2022-12-03T04:17:26.053Z,1.08
2022-12-03T04:18:26.068Z,1.08
2022-12-03T04:19:26.055Z,1.08
2022-12-03T04:20:26.037Z,1.06
2022-12-03T04:21:26.012Z,1.04
2022-12-03T04:22:26.045Z,1.08
2022-12-03T04:23:30.766Z,1.10
2022-12-03T04:24:27.003Z,1.10
2022-12-03T04:25:25.965Z,1.08
2022-12-03T04:26:25.982Z,1.14
2022-12-03T04:27:26.021Z,1.08
2022-12-03T04:28:25.970Z,1.07
2022-12-03T04:29:25.939Z,1.07
2022-12-03T04:30:25.982Z,1.06
2022-12-03T04:31:26.068Z,1.06
2022-12-03T04:32:25.941Z,1.03
2022-12-03T04:33:25.884Z,1.04
2022-12-03T04:34:25.901Z,1.06
2022-12-03T04:35:25.967Z,1.04
2022-12-03T04:36:25.880Z,0.97
2022-12-03T04:37:25.855Z,0.98
2022-12-03T04:38:25.875Z,1.00
2022-12-03T04:39:25.814Z,0.94
2022-12-03T04:40:25.834Z,0.97
2022-12-03T04:41:25.800Z,0.98
2022-12-03T04:42:25.830Z,1.03
2022-12-03T04:43:25.791Z,0.97
2022-12-03T04:44:25.788Z,0.96
2022-12-03T04:45:25.757Z,1.00
2022-12-03T04:46:25.823Z,1.01
2022-12-03T04:47:25.746Z,1.01
2022-12-03T04:48:25.758Z,0.97
2022-12-03T04:49:25.723Z,0.96
2022-12-03T04:50:25.798Z,0.89
2022-12-03T04:51:26.644Z,0.89
2022-12-03T04:52:25.718Z,0.90
2022-12-03T04:53:25.707Z,0.90
2022-12-03T04:54:25.697Z,0.94
2022-12-03T04:55:25.640Z,0.96
2022-12-03T04:56:26.287Z,0.97
2022-12-03T04:57:25.640Z,0.97
2022-12-03T04:58:25.641Z,0.98
2022-12-03T04:59:25.612Z,1.00
2022-12-03T05:00:25.624Z,1.04
2022-12-03T05:01:25.649Z,1.06
2022-12-03T05:02:25.680Z,1.10
2022-12-03T05:03:25.583Z,1.08
2022-12-03T05:04:25.569Z,1.07
2022-12-03T05:05:25.551Z,1.10
2022-12-03T05:06:25.562Z,1.07
2022-12-03T05:07:25.612Z,1.01
2022-12-03T05:08:25.571Z,1.03
2022-12-03T05:09:26.456Z,1.03
2022-12-03T05:10:26.488Z,1.06
2022-12-03T05:11:25.491Z,1.08
2022-12-03T05:12:25.493Z,1.14
2022-12-03T05:13:25.491Z,1.15
2022-12-03T05:14:25.470Z,1.15
2022-12-03T05:15:25.443Z,1.10
2022-12-03T05:16:25.587Z,1.12
2022-12-03T05:17:25.418Z,1.16
2022-12-03T05:18:25.433Z,1.15
2022-12-03T05:19:26.359Z,1.16
2022-12-03T05:20:25.426Z,1.15
2022-12-03T05:21:25.397Z,1.15
2022-12-03T05:22:25.419Z,1.14
2022-12-03T05:23:25.353Z,1.10
2022-12-03T05:24:25.415Z,1.10
2022-12-03T05:25:25.327Z,1.08
2022-12-03T05:26:25.338Z,1.04
2022-12-03T05:27:25.312Z,0.97
2022-12-03T05:28:25.319Z,0.97
2022-12-03T05:29:25.308Z,0.97
2022-12-03T05:30:25.369Z,1.00
2022-12-03T05:31:25.293Z,1.03
2022-12-03T05:32:25.278Z,1.06
2022-12-03T05:33:25.272Z,1.10
2022-12-03T05:34:25.262Z,1.12
2022-12-03T05:35:25.253Z,1.16
2022-12-03T05:36:25.238Z,1.19
2022-12-03T05:37:25.198Z,1.22
2022-12-03T05:38:25.216Z,1.24
2022-12-03T05:39:25.179Z,1.25
2022-12-03T05:40:25.222Z,1.29
2022-12-03T05:41:26.118Z,1.32
2022-12-03T05:42:25.158Z,1.28
2022-12-03T05:43:25.148Z,1.29
2022-12-03T05:44:25.150Z,1.29
2022-12-03T05:45:25.116Z,1.29
2022-12-03T05:46:25.189Z,1.33
2022-12-03T05:47:25.108Z,1.37
2022-12-03T05:48:25.213Z,1.37
2022-12-03T05:49:25.074Z,1.34
2022-12-03T05:50:25.081Z,1.37
2022-12-03T05:51:25.061Z,1.40
2022-12-03T05:52:25.061Z,1.40
2022-12-03T05:53:25.039Z,1.44
2022-12-03T05:54:25.070Z,1.39
2022-12-03T05:55:25.001Z,1.39
2022-12-03T05:56:25.022Z,1.39
2022-12-03T05:57:25.955Z,1.39
2022-12-03T05:58:25.002Z,1.39
2022-12-03T05:59:24.975Z,1.37
2022-12-03T06:00:24.994Z,1.32
2022-12-03T06:01:24.954Z,1.34
2022-12-03T06:02:25.110Z,1.33
2022-12-03T06:03:25.145Z,1.29
2022-12-03T06:04:24.953Z,1.28
2022-12-03T06:05:24.906Z,1.24
2022-12-03T06:06:24.926Z,1.24
2022-12-03T06:07:25.051Z,1.25
2022-12-03T06:08:24.902Z,1.25
2022-12-03T06:09:24.870Z,1.25
2022-12-03T06:10:24.883Z,1.25
2022-12-03T06:11:24.844Z,1.24
2022-12-03T06:12:24.851Z,1.24
2022-12-03T06:13:24.826Z,1.16
2022-12-03T06:14:25.808Z,1.14
2022-12-03T06:15:24.819Z,1.08
2022-12-03T06:16:24.845Z,1.06
2022-12-03T06:17:24.771Z,1.08
2022-12-03T06:18:24.792Z,1.12
2022-12-03T06:19:24.766Z,1.14
2022-12-03T06:20:24.777Z,1.15
2022-12-03T06:21:24.743Z,1.16
2022-12-03T06:22:24.745Z,1.16
2022-12-03T06:23:24.706Z,1.16
2022-12-03T06:24:24.746Z,1.16
2022-12-03T06:25:24.688Z,1.16
2022-12-03T06:26:24.730Z,1.18
2022-12-03T06:27:24.664Z,1.22
2022-12-03T06:28:25.693Z,1.24
2022-12-03T06:29:24.666Z,1.24
2022-12-03T06:30:24.679Z,1.24
2022-12-03T06:31:24.713Z,1.22
2022-12-03T06:32:24.650Z,1.24
2022-12-03T06:33:25.555Z,1.24
2022-12-03T06:34:24.619Z,1.26
2022-12-03T06:35:24.598Z,1.28
2022-12-03T06:36:24.594Z,1.29
2022-12-03T06:37:25.511Z,1.28
2022-12-03T06:38:24.583Z,1.32
2022-12-03T06:39:24.540Z,1.33
2022-12-03T06:40:24.584Z,1.32
2022-12-03T06:41:24.519Z,1.28
2022-12-03T06:42:24.541Z,1.29
2022-12-03T06:43:24.501Z,1.32
2022-12-03T06:44:24.533Z,1.32
2022-12-03T06:45:24.487Z,1.32
2022-12-03T06:46:24.563Z,1.29
2022-12-03T06:47:24.458Z,1.32
2022-12-03T06:48:24.475Z,1.26
2022-12-03T06:49:24.452Z,1.25
2022-12-03T06:50:24.465Z,1.25
2022-12-03T06:51:24.423Z,1.25
2022-12-03T06:52:25.373Z,1.21
2022-12-03T06:53:24.404Z,1.19
2022-12-03T06:54:24.405Z,1.19
2022-12-03T06:55:24.386Z,1.19
2022-12-03T06:56:25.123Z,1.21
2022-12-03T06:57:24.350Z,1.19
2022-12-03T06:58:24.366Z,1.24
2022-12-03T06:59:24.352Z,1.28
2022-12-03T07:00:24.400Z,1.32
2022-12-03T07:01:24.394Z,1.34
2022-12-03T07:02:24.388Z,1.37
2022-12-03T07:03:24.418Z,1.40
2022-12-03T07:04:24.305Z,1.44
2022-12-03T07:05:24.257Z,1.44
2022-12-03T07:06:24.331Z,1.46
2022-12-03T07:07:24.381Z,1.47
2022-12-03T07:08:24.292Z,1.46
2022-12-03T07:09:24.250Z,1.46
2022-12-03T07:10:24.259Z,1.46
2022-12-03T07:11:24.199Z,1.43
2022-12-03T07:12:24.210Z,1.46
2022-12-03T07:13:24.175Z,1.43
2022-12-03T07:14:24.223Z,1.40
2022-12-03T07:15:24.159Z,1.28
2022-12-03T07:16:24.229Z,1.22
2022-12-03T07:17:24.169Z,1.22
2022-12-03T07:18:24.160Z,1.24
2022-12-03T07:19:29.068Z,1.24
2022-12-03T07:20:25.121Z,1.22
2022-12-03T07:21:24.092Z,1.18
2022-12-03T07:22:24.233Z,1.19
2022-12-03T07:23:24.100Z,1.21
2022-12-03T07:24:24.106Z,1.19
2022-12-03T07:25:24.064Z,1.22
2022-12-03T07:26:24.065Z,1.24
2022-12-03T07:27:24.050Z,1.24
2022-12-03T07:28:24.070Z,1.25
2022-12-03T07:29:24.041Z,1.26
2022-12-03T07:30:24.029Z,1.19
2022-12-03T07:31:24.113Z,1.22
2022-12-03T07:32:24.014Z,1.24
2022-12-03T07:33:23.987Z,1.28
2022-12-03T07:34:24.928Z,1.29
2022-12-03T07:35:23.954Z,1.29
2022-12-03T07:36:23.984Z,1.28
2022-12-03T07:37:24.882Z,1.29
2022-12-03T07:38:23.953Z,1.32
2022-12-03T07:39:23.898Z,1.29
2022-12-03T07:40:23.920Z,1.26
2022-12-03T07:41:23.874Z,1.24
2022-12-03T07:42:23.925Z,1.24
2022-12-03T07:43:23.855Z,1.21
2022-12-03T07:44:23.887Z,1.18
2022-12-03T07:45:23.868Z,1.21
2022-12-03T07:46:24.852Z,1.21
2022-12-03T07:47:23.820Z,1.22
2022-12-03T07:48:23.828Z,1.21
2022-12-03T07:49:23.826Z,1.21
2022-12-03T07:50:23.790Z,1.22
2022-12-03T07:51:27.503Z,1.21
2022-12-03T07:52:24.796Z,1.22
2022-12-03T07:53:23.785Z,1.28
2022-12-03T07:54:23.758Z,1.29
2022-12-03T07:55:23.767Z,1.34
2022-12-03T07:56:23.758Z,1.36
2022-12-03T07:57:23.752Z,1.39
2022-12-03T07:58:23.722Z,1.40
2022-12-03T07:59:23.708Z,1.42
2022-12-03T08:00:23.697Z,1.43
2022-12-03T08:01:23.775Z,1.40
2022-12-03T08:02:23.738Z,1.40
2022-12-03T08:03:23.681Z,1.40
2022-12-03T08:04:23.651Z,1.40
2022-12-03T08:05:23.655Z,1.42
2022-12-03T08:06:23.617Z,1.42
2022-12-03T08:07:23.640Z,1.43
2022-12-03T08:08:23.600Z,1.43
2022-12-03T08:09:23.611Z,1.44
2022-12-03T08:10:23.591Z,1.46
2022-12-03T08:11:23.582Z,1.50
2022-12-03T08:12:23.573Z,1.51
2022-12-03T08:13:23.574Z,1.51
2022-12-03T08:14:23.535Z,1.50
2022-12-03T08:15:23.574Z,1.42
2022-12-03T08:16:23.567Z,1.44
2022-12-03T08:17:23.524Z,1.42
2022-12-03T08:18:23.490Z,1.40
2022-12-03T08:19:23.509Z,1.40
2022-12-03T08:20:23.464Z,1.43
2022-12-03T08:21:23.482Z,1.43
2022-12-03T08:22:23.467Z,1.42
2022-12-03T08:23:23.478Z,1.42
2022-12-03T08:24:23.417Z,1.36
2022-12-03T08:25:23.478Z,1.34
2022-12-03T08:26:23.411Z,1.29
2022-12-03T08:27:23.437Z,1.22
2022-12-03T08:28:23.385Z,1.16
2022-12-03T08:29:24.358Z,1.07
2022-12-03T08:30:23.387Z,1.06
2022-12-03T08:31:25.770Z,1.03
2022-12-03T08:32:24.508Z,1.00
2022-12-03T08:33:23.376Z,0.96
2022-12-03T08:34:23.330Z,0.94
2022-12-03T08:35:23.357Z,0.94
2022-12-03T08:36:23.302Z,0.94
2022-12-03T08:37:23.306Z,0.96
2022-12-03T08:38:23.300Z,0.98
2022-12-03T08:39:23.299Z,1.01
2022-12-03T08:40:23.260Z,1.08
2022-12-03T08:41:23.276Z,1.15
2022-12-03T08:42:23.233Z,1.19
2022-12-03T08:43:23.266Z,1.18
2022-12-03T08:44:23.210Z,1.18
2022-12-03T08:45:23.261Z,1.19
2022-12-03T08:46:23.239Z,1.21
2022-12-03T08:47:23.221Z,1.24
2022-12-03T08:48:23.200Z,1.26
2022-12-03T08:49:23.191Z,1.25
2022-12-03T08:50:23.170Z,1.22
2022-12-03T08:51:23.160Z,1.22
2022-12-03T08:52:23.140Z,1.26
2022-12-03T08:53:23.199Z,1.26
2022-12-03T08:54:23.102Z,1.29
2022-12-03T08:55:23.120Z,1.29
2022-12-03T08:56:23.083Z,1.34
2022-12-03T08:57:23.115Z,1.34
2022-12-03T08:58:23.073Z,1.36
2022-12-03T08:59:23.078Z,1.37
2022-12-03T09:00:23.052Z,1.37
2022-12-03T09:01:23.115Z,1.37
2022-12-03T09:02:23.046Z,1.37
2022-12-03T09:03:23.056Z,1.37
2022-12-03T09:04:23.109Z,1.42
2022-12-03T09:05:23.010Z,1.43
2022-12-03T09:06:22.982Z,1.43
2022-12-03T09:07:23.016Z,1.44
2022-12-03T09:08:24.430Z,1.44
2022-12-03T09:09:22.992Z,1.44
2022-12-03T09:10:22.931Z,1.43
2022-12-03T09:11:22.946Z,1.42
2022-12-03T09:12:22.906Z,1.42
2022-12-03T09:13:22.944Z,1.39
2022-12-03T09:14:22.901Z,1.37
2022-12-03T09:15:22.933Z,1.37
2022-12-03T09:16:23.032Z,1.32
2022-12-03T09:17:22.889Z,1.28
2022-12-03T09:18:22.857Z,1.22
2022-12-03T09:19:22.863Z,1.24
2022-12-03T09:20:22.893Z,1.29
2022-12-03T09:21:22.844Z,1.34
2022-12-03T09:22:23.783Z,1.37
2022-12-03T09:23:22.840Z,1.40
2022-12-03T09:24:22.795Z,1.42
2022-12-03T09:25:22.789Z,1.42
2022-12-03T09:26:22.777Z,1.46
2022-12-03T09:27:22.769Z,1.50
2022-12-03T09:28:22.803Z,1.47
2022-12-03T09:29:22.787Z,1.52
2022-12-03T09:30:22.804Z,1.50
2022-12-03T09:31:22.787Z,1.47
2022-12-03T09:32:22.798Z,1.50
2022-12-03T09:33:22.717Z,1.46
2022-12-03T09:34:22.681Z,1.44
2022-12-03T09:35:22.688Z,1.42
2022-12-03T09:36:22.669Z,1.42
2022-12-03T09:37:22.672Z,1.40
2022-12-03T09:38:22.649Z,1.42
2022-12-03T09:39:22.661Z,1.37
2022-12-03T09:40:22.760Z,1.28
2022-12-03T09:41:23.619Z,1.16
2022-12-03T09:42:22.594Z,1.12
2022-12-03T09:43:22.607Z,1.12
2022-12-03T09:44:22.576Z,1.12
2022-12-03T09:45:22.613Z,1.16
2022-12-03T09:46:22.649Z,1.19
2022-12-03T09:47:22.566Z,1.16
2022-12-03T09:48:22.534Z,1.15
2022-12-03T09:49:22.550Z,1.16
2022-12-03T09:50:22.523Z,1.19
2022-12-03T09:51:22.535Z,1.25
2022-12-03T09:52:22.495Z,1.28
2022-12-03T09:53:22.502Z,1.34
2022-12-03T09:54:22.464Z,1.39
2022-12-03T09:55:22.474Z,1.44
2022-12-03T09:56:22.493Z,1.43
2022-12-03T09:57:22.484Z,1.42
2022-12-03T09:58:22.453Z,1.40
2022-12-03T09:59:22.445Z,1.39
2022-12-03T10:00:22.411Z,1.37
2022-12-03T10:01:22.535Z,1.36
2022-12-03T10:02:22.406Z,1.39
2022-12-03T10:03:28.168Z,1.37
2022-12-03T10:04:23.456Z,1.40
2022-12-03T10:05:22.399Z,1.40
2022-12-03T10:06:23.306Z,1.42
2022-12-03T10:07:22.369Z,1.40
2022-12-03T10:08:22.436Z,1.34
2022-12-03T10:09:22.347Z,1.32
2022-12-03T10:10:22.301Z,1.29
2022-12-03T10:11:22.332Z,1.29
2022-12-03T10:12:22.283Z,1.26
2022-12-03T10:13:25.634Z,1.21
2022-12-03T10:14:22.254Z,1.21
2022-12-03T10:15:22.287Z,1.26
2022-12-03T10:16:22.313Z,1.32
2022-12-03T10:17:22.252Z,1.33
2022-12-03T10:18:22.199Z,1.36
2022-12-03T10:19:22.226Z,1.37
2022-12-03T10:20:22.221Z,1.36
2022-12-03T10:21:22.226Z,1.36
2022-12-03T10:22:23.148Z,1.24
2022-12-03T10:23:22.188Z,1.15
2022-12-03T10:24:22.157Z,1.15
2022-12-03T10:25:22.172Z,1.15
2022-12-03T10:26:22.156Z,1.19
2022-12-03T10:27:22.131Z,1.21
2022-12-03T10:28:22.994Z,1.24
2022-12-03T10:29:22.570Z,1.28
2022-12-03T10:30:22.108Z,1.28
2022-12-03T10:31:22.188Z,1.22
2022-12-03T10:32:22.083Z,1.25
2022-12-03T10:33:22.088Z,1.26
2022-12-03T10:34:23.022Z,1.26
2022-12-03T10:35:22.254Z,1.29
2022-12-03T10:36:22.024Z,1.29
2022-12-03T10:37:22.986Z,1.32
2022-12-03T10:38:22.001Z,1.32
2022-12-03T10:39:22.008Z,1.29
2022-12-03T10:40:22.001Z,1.33
2022-12-03T10:41:21.992Z,1.36
2022-12-03T10:42:21.961Z,1.34
2022-12-03T10:43:21.988Z,1.33
2022-12-03T10:44:21.932Z,1.32
2022-12-03T10:45:21.975Z,1.34
2022-12-03T10:46:22.079Z,1.39
2022-12-03T10:47:21.994Z,1.43
2022-12-03T10:48:21.900Z,1.47
2022-12-03T10:49:21.936Z,1.47
2022-12-03T10:50:21.868Z,1.51
2022-12-03T10:51:21.907Z,1.54
2022-12-03T10:52:25.652Z,1.52
2022-12-03T10:53:22.820Z,1.54
2022-12-03T10:54:21.830Z,1.57
2022-12-03T10:55:21.830Z,1.55
2022-12-03T10:56:21.808Z,1.57
2022-12-03T10:57:21.823Z,1.57
2022-12-03T10:58:21.790Z,1.61
2022-12-03T10:59:21.830Z,1.58
2022-12-03T11:00:21.758Z,1.58
2022-12-03T11:01:21.884Z,1.58
2022-12-03T11:02:22.691Z,1.61
2022-12-03T11:03:21.840Z,1.61
2022-12-03T11:04:21.720Z,1.61
2022-12-03T11:05:21.728Z,1.60
2022-12-03T11:06:21.692Z,1.61
2022-12-03T11:07:21.711Z,1.60
2022-12-03T11:08:21.692Z,1.60
2022-12-03T11:09:21.689Z,1.61
2022-12-03T11:10:21.643Z,1.62
2022-12-03T11:11:21.672Z,1.61
2022-12-03T11:12:21.629Z,1.60
2022-12-03T11:13:21.662Z,1.58
2022-12-03T11:14:23.163Z,1.60
2022-12-03T11:15:21.635Z,1.61
2022-12-03T11:16:21.688Z,1.62
2022-12-03T11:17:21.605Z,1.62
2022-12-03T11:18:21.595Z,1.65
2022-12-03T11:19:21.577Z,1.62
2022-12-03T11:20:23.071Z,1.64
2022-12-03T11:21:21.562Z,1.64
2022-12-03T11:22:21.532Z,1.71
2022-12-03T11:23:21.567Z,1.73
2022-12-03T11:24:21.507Z,1.73
2022-12-03T11:25:21.520Z,1.73
2022-12-03T11:26:21.475Z,1.75
2022-12-03T11:27:21.506Z,1.73
2022-12-03T11:28:21.478Z,1.75
2022-12-03T11:29:21.494Z,1.76
2022-12-03T11:30:21.448Z,1.72
2022-12-03T11:31:21.488Z,1.69
2022-12-03T11:32:21.416Z,1.62
2022-12-03T11:33:21.465Z,1.60
2022-12-03T11:34:21.405Z,1.57
2022-12-03T11:35:21.417Z,1.55
2022-12-03T11:36:36.477Z,1.60
2022-12-03T11:37:22.419Z,1.60
2022-12-03T11:38:21.360Z,1.62
2022-12-03T11:39:21.367Z,1.61
2022-12-03T11:40:21.355Z,1.58
2022-12-03T11:41:21.360Z,1.57
2022-12-03T11:42:21.327Z,1.57
2022-12-03T11:43:21.328Z,1.58
2022-12-03T11:44:21.299Z,1.51
2022-12-03T11:45:21.300Z,1.50
2022-12-03T11:46:21.335Z,1.47
2022-12-03T11:47:21.301Z,1.36
2022-12-03T11:48:21.268Z,1.34
2022-12-03T11:49:21.260Z,1.36
2022-12-03T11:50:21.229Z,1.37
2022-12-03T11:51:21.242Z,1.43
2022-12-03T11:52:21.233Z,1.47
2022-12-03T11:53:21.247Z,1.51
2022-12-03T11:54:21.183Z,1.52
2022-12-03T11:55:21.397Z,1.46
2022-12-03T11:56:21.160Z,1.42
2022-12-03T11:57:21.178Z,1.33
2022-12-03T11:58:21.141Z,1.22
2022-12-03T11:59:21.151Z,1.19
2022-12-03T12:00:21.152Z,1.14
2022-12-03T12:01:21.397Z,1.16
2022-12-03T12:02:21.164Z,1.18
2022-12-03T12:03:21.266Z,1.22
2022-12-03T12:04:21.146Z,1.24
2022-12-03T12:05:21.083Z,1.29
2022-12-03T12:06:21.079Z,1.34
2022-12-03T12:07:21.047Z,1.36
2022-12-03T12:08:21.127Z,1.39
2022-12-03T12:09:21.019Z,1.43
2022-12-03T12:10:21.039Z,1.43
2022-12-03T12:11:21.007Z,1.37
2022-12-03T12:12:21.022Z,1.32
2022-12-03T12:13:21.945Z,1.28
2022-12-03T12:14:20.997Z,1.24
2022-12-03T12:15:20.968Z,1.21
2022-12-03T12:16:21.001Z,1.18
2022-12-03T12:17:20.956Z,1.16
2022-12-03T12:18:20.974Z,1.16
2022-12-03T12:19:20.917Z,1.16
2022-12-03T12:20:20.928Z,1.16
2022-12-03T12:21:20.916Z,1.16
2022-12-03T12:22:20.901Z,1.14
2022-12-03T12:23:20.880Z,1.15
2022-12-03T12:24:20.889Z,1.16
2022-12-03T12:25:20.849Z,1.21
2022-12-03T12:26:21.040Z,1.22
2022-12-03T12:27:20.849Z,1.22
2022-12-03T12:28:20.848Z,1.26
2022-12-03T12:29:20.811Z,1.32
2022-12-03T12:30:21.040Z,1.36
2022-12-03T12:31:20.837Z,1.39
2022-12-03T12:32:20.824Z,1.43
2022-12-03T12:33:20.770Z,1.50
2022-12-03T12:34:20.795Z,1.52
2022-12-03T12:35:20.760Z,1.55
2022-12-03T12:36:20.772Z,1.57
2022-12-03T12:37:20.737Z,1.55
2022-12-03T12:38:20.763Z,1.47
2022-12-03T12:39:21.038Z,1.51
2022-12-03T12:40:20.741Z,1.64
2022-12-03T12:41:22.140Z,1.72
2022-12-03T12:42:21.486Z,1.72
2022-12-03T12:43:24.110Z,1.69
2022-12-03T12:44:20.679Z,1.68
2022-12-03T12:45:20.662Z,1.64
2022-12-03T12:46:47.288Z,1.58
2022-12-03T12:47:21.724Z,1.54
2022-12-03T12:48:22.091Z,1.55
2022-12-03T12:49:22.053Z,1.54
2022-12-03T12:50:20.632Z,1.43
2022-12-03T12:51:20.845Z,1.36
2022-12-03T12:52:22.061Z,1.36
2022-12-03T12:53:20.568Z,1.39
2022-12-03T12:54:22.016Z,1.42
2022-12-03T12:55:20.804Z,1.46
2022-12-03T12:56:20.574Z,1.47
2022-12-03T12:57:20.523Z,1.39
2022-12-03T12:58:21.016Z,1.37
2022-12-03T12:59:20.574Z,1.37
2022-12-03T13:00:20.542Z,1.43
2022-12-03T13:01:20.566Z,1.46
2022-12-03T13:02:20.589Z,1.47
2022-12-03T13:03:20.476Z,1.54
2022-12-03T13:04:21.948Z,1.55
2022-12-03T13:05:20.430Z,1.58
2022-12-03T13:06:20.467Z,1.61
2022-12-03T13:07:21.136Z,1.58
2022-12-03T13:08:20.496Z,1.58
2022-12-03T13:09:20.397Z,1.62
2022-12-03T13:10:20.428Z,1.65
2022-12-03T13:11:20.366Z,1.64
2022-12-03T13:12:20.396Z,1.65
2022-12-03T13:13:20.347Z,1.71
2022-12-03T13:14:20.404Z,1.73
2022-12-03T13:15:20.321Z,1.75
2022-12-03T13:16:20.508Z,1.75
2022-12-03T13:17:20.319Z,1.75
2022-12-03T13:18:20.318Z,1.69